createdAt,value
2022-10-19T00:01:18.439Z,99.90
2022-10-19T00:06:20.240Z,99.90
2022-10-19T00:08:48.395Z,99.90
2022-10-19T00:11:16.605Z,99.90
2022-10-19T00:13:44.823Z,99.90
2022-10-19T00:16:16.601Z,99.90
2022-10-19T00:18:45.484Z,99.90
2022-10-19T00:21:16.756Z,99.90
2022-10-19T00:23:45.393Z,99.90
2022-10-19T00:26:14.311Z,99.90
2022-10-19T00:28:42.789Z,99.90
2022-10-19T00:31:13.166Z,99.90
2022-10-19T00:33:43.411Z,99.90
2022-10-19T00:36:17.232Z,99.90
2022-10-19T00:38:45.792Z,99.90
2022-10-19T00:41:14.043Z,99.90
2022-10-19T00:43:53.966Z,99.90
2022-10-19T00:46:22.625Z,99.90
2022-10-19T00:48:53.819Z,99.90
2022-10-19T00:51:22.445Z,99.90
2022-10-19T00:53:50.851Z,99.90
2022-10-19T00:56:19.512Z,99.90
2022-10-19T00:58:48.027Z,99.90
2022-10-19T01:01:20.289Z,99.90
2022-10-19T01:03:49.699Z,99.90
2022-10-19T01:06:20.861Z,99.90
2022-10-19T01:08:49.006Z,99.90
2022-10-19T01:11:27.134Z,99.90
2022-10-19T01:14:04.391Z,99.90
2022-10-19T01:16:42.242Z,99.90
2022-10-19T01:19:34.767Z,99.90
2022-10-19T01:22:15.549Z,99.90
2022-10-19T01:24:57.834Z,99.90
2022-10-19T01:27:47.914Z,99.90
2022-10-19T01:30:28.746Z,99.90
2022-10-19T01:33:21.574Z,99.90
2022-10-19T01:36:03.538Z,99.90
2022-10-19T01:38:38.534Z,99.90
2022-10-19T01:41:16.023Z,99.90
2022-10-19T01:43:49.233Z,99.90
2022-10-19T01:46:24.078Z,99.90
2022-10-19T01:49:03.071Z,99.90
2022-10-19T01:51:35.182Z,99.90
2022-10-19T01:54:07.147Z,99.90
2022-10-19T01:56:36.846Z,99.90
2022-10-19T01:59:08.100Z,99.90
2022-10-19T02:01:42.421Z,99.90
2022-10-19T02:04:12.305Z,99.90
2022-10-19T02:06:40.880Z,99.90
2022-10-19T02:09:09.184Z,99.90
2022-10-19T02:11:39.099Z,99.90
2022-10-19T02:14:11.972Z,99.90
2022-10-19T02:16:44.368Z,99.90
2022-10-19T02:19:16.475Z,99.90
2022-10-19T02:21:44.774Z,99.90
2022-10-19T02:24:13.007Z,99.90
2022-10-19T02:26:41.931Z,99.90
2022-10-19T02:29:12.777Z,99.90
2022-10-19T02:32:57.208Z,99.90
2022-10-19T02:35:26.936Z,99.90
2022-10-19T02:37:55.810Z,99.90
2022-10-19T02:40:24.305Z,99.90
2022-10-19T02:42:57.789Z,99.90
2022-10-19T02:45:29.485Z,99.90
2022-10-19T02:48:02.224Z,99.90
2022-10-19T02:50:32.141Z,99.90
2022-10-19T02:53:00.849Z,99.90
2022-10-19T02:55:30.026Z,99.90
2022-10-19T02:57:58.386Z,99.90
2022-10-19T03:00:26.755Z,99.90
2022-10-19T03:02:55.029Z,99.90
2022-10-19T03:05:23.304Z,99.90
2022-10-19T03:07:53.115Z,99.90
2022-10-19T03:10:21.452Z,99.90
2022-10-19T03:12:49.692Z,99.90
2022-10-19T03:15:19.220Z,99.90
2022-10-19T03:17:47.519Z,99.90
2022-10-19T03:20:15.992Z,99.90
2022-10-19T03:22:44.347Z,99.90
2022-10-19T03:25:13.986Z,99.90
2022-10-19T03:27:42.217Z,99.90
2022-10-19T03:30:11.123Z,99.90
2022-10-19T03:32:39.579Z,99.90
2022-10-19T03:35:08.883Z,99.90
2022-10-19T03:37:37.415Z,99.90
2022-10-19T03:40:06.788Z,99.90
2022-10-19T03:42:36.567Z,99.90
2022-10-19T03:45:05.224Z,99.90
2022-10-19T03:47:33.675Z,99.90
2022-10-19T03:50:02.068Z,99.90
2022-10-19T03:52:30.275Z,99.90
2022-10-19T03:54:58.583Z,99.90
2022-10-19T03:57:26.912Z,99.90
2022-10-19T03:59:56.647Z,99.90
2022-10-19T04:02:26.023Z,99.90
2022-10-19T04:04:54.342Z,99.90
2022-10-19T04:07:22.709Z,99.90
2022-10-19T04:09:51.008Z,99.90
2022-10-19T04:12:19.259Z,99.90
2022-10-19T04:14:56.882Z,99.90
2022-10-19T04:17:27.429Z,99.90
2022-10-19T04:19:55.746Z,99.90
2022-10-19T04:22:24.025Z,99.90
2022-10-19T04:24:52.336Z,99.90
2022-10-19T04:27:21.229Z,99.90
2022-10-19T04:29:49.462Z,99.90
2022-10-19T04:32:17.728Z,99.90
2022-10-19T04:34:47.421Z,99.90
2022-10-19T04:37:15.708Z,99.90
2022-10-19T04:39:44.666Z,99.90
2022-10-19T04:42:12.921Z,99.90
2022-10-19T04:44:41.192Z,99.90
2022-10-19T04:47:11.908Z,99.90
2022-10-19T04:49:40.229Z,99.90
2022-10-19T04:52:09.927Z,99.90
2022-10-19T04:54:38.212Z,99.90
2022-10-19T04:57:06.423Z,99.90
2022-10-19T04:59:34.889Z,99.90
2022-10-19T05:02:03.272Z,99.90
2022-10-19T05:04:31.588Z,99.90
2022-10-19T05:06:59.889Z,99.90
2022-10-19T05:09:29.704Z,99.90
2022-10-19T05:11:57.967Z,99.90
2022-10-19T05:14:29.198Z,99.90
2022-10-19T05:16:57.479Z,99.90
2022-10-19T05:19:25.878Z,99.90
2022-10-19T05:21:54.168Z,99.90
2022-10-19T05:24:22.515Z,99.90
2022-10-19T05:26:52.365Z,99.90
2022-10-19T05:29:20.981Z,99.90
2022-10-19T05:31:49.272Z,99.90
2022-10-19T05:34:17.571Z,99.90
2022-10-19T05:36:45.875Z,99.90
2022-10-19T05:39:16.575Z,99.90
2022-10-19T05:41:45.506Z,99.90
2022-10-19T05:44:17.225Z,99.90
2022-10-19T05:46:46.116Z,99.90
2022-10-19T05:49:15.262Z,99.90
2022-10-19T05:51:43.874Z,99.90
2022-10-19T05:54:12.536Z,99.90
2022-10-19T05:56:42.321Z,99.90
2022-10-19T05:59:14.836Z,99.90
2022-10-19T06:01:44.779Z,99.90
2022-10-19T06:04:14.910Z,99.90
2022-10-19T06:06:43.974Z,99.90
2022-10-19T06:09:12.483Z,99.90
2022-10-19T06:11:43.121Z,99.90
2022-10-19T06:14:14.953Z,99.90
2022-10-19T06:16:46.375Z,99.90
2022-10-19T06:19:14.825Z,99.90
2022-10-19T06:21:45.887Z,99.90
2022-10-19T06:24:14.347Z,99.90
2022-10-19T06:26:42.668Z,99.90
2022-10-19T06:29:11.168Z,99.90
2022-10-19T06:31:39.627Z,99.90
2022-10-19T06:34:09.380Z,99.90
2022-10-19T06:36:37.738Z,99.90
2022-10-19T06:39:06.070Z,99.90
2022-10-19T06:41:34.994Z,99.90
2022-10-19T06:44:19.446Z,99.90
2022-10-19T06:46:47.856Z,99.90
2022-10-19T06:49:17.642Z,99.90
2022-10-19T06:51:45.974Z,99.90
2022-10-19T06:54:14.233Z,99.90
2022-10-19T06:56:42.564Z,99.90
2022-10-19T06:59:13.509Z,99.90
2022-10-19T07:01:43.052Z,99.90
2022-10-19T07:04:11.457Z,99.90
2022-10-19T07:06:41.336Z,99.90
2022-10-19T07:09:09.632Z,99.90
2022-10-19T07:11:40.399Z,99.90
2022-10-19T07:14:13.960Z,99.90
2022-10-19T07:16:42.197Z,99.90
2022-10-19T07:19:10.482Z,99.90
2022-10-19T07:21:41.706Z,99.90
2022-10-19T07:24:10.251Z,99.90
2022-10-19T07:26:39.025Z,99.90
2022-10-19T07:29:07.326Z,99.90
2022-10-19T07:31:35.673Z,99.90
2022-10-19T07:34:06.401Z,99.90
2022-10-19T07:36:36.017Z,94.30
2022-10-19T07:39:07.083Z,99.90
2022-10-19T07:41:35.788Z,99.90
2022-10-19T07:44:04.847Z,86.50
2022-10-19T07:46:35.795Z,27.70
2022-10-19T07:49:07.002Z,19.70
2022-10-19T07:51:35.414Z,21.70
2022-10-19T07:54:05.171Z,37.30
2022-10-19T07:56:33.697Z,57.00
2022-10-19T07:59:02.834Z,71.40
2022-10-19T08:01:33.093Z,76.10
2022-10-19T08:06:50.644Z,43.10
2022-10-19T08:09:47.139Z,29.70
2022-10-19T08:12:13.858Z,20.60
2022-10-19T08:14:43.341Z,29.10
2022-10-19T08:17:16.617Z,51.00
2022-10-19T08:19:45.054Z,41.40
2022-10-19T08:22:13.774Z,21.10
2022-10-19T08:24:43.452Z,1.00
2022-10-19T08:27:11.755Z,1.00
2022-10-19T08:29:40.029Z,1.00
2022-10-19T08:32:08.476Z,1.00
2022-10-19T08:34:36.731Z,1.00
2022-10-19T08:37:14.661Z,1.00
2022-10-19T08:39:54.952Z,1.00
2022-10-19T08:42:30.092Z,1.00
2022-10-19T08:45:23.769Z,3.50
2022-10-19T08:48:01.679Z,8.80
2022-10-19T08:50:37.458Z,16.20
2022-10-19T08:53:08.206Z,1.00
2022-10-19T08:55:52.593Z,14.10
2022-10-19T08:58:41.765Z,1.00
2022-10-19T09:01:17.430Z,1.00
2022-10-19T09:03:56.858Z,1.00
2022-10-19T09:06:28.935Z,1.00
2022-10-19T09:08:59.319Z,1.00
2022-10-19T09:11:31.538Z,1.00
2022-10-19T09:14:06.683Z,1.00
2022-10-19T09:16:35.931Z,1.00
2022-10-19T09:19:05.142Z,1.00
2022-10-19T09:21:45.937Z,1.00
2022-10-19T09:24:27.581Z,1.00
2022-10-19T09:26:59.769Z,99.90
2022-10-19T09:29:33.393Z,45.80
2022-10-19T09:32:04.882Z,99.90
2022-10-19T09:34:37.365Z,1.00
2022-10-19T09:37:05.753Z,1.00
2022-10-19T09:39:35.354Z,1.00
2022-10-19T09:42:18.991Z,99.90
2022-10-19T09:44:47.521Z,95.00
2022-10-19T09:47:30.472Z,1.00
2022-10-19T09:50:09.680Z,1.00
2022-10-19T09:52:39.846Z,99.90
2022-10-19T09:55:23.098Z,99.90
2022-10-19T09:58:01.044Z,1.00
2022-10-19T10:00:36.146Z,1.00
2022-10-19T10:03:05.967Z,99.90
2022-10-19T10:05:36.736Z,1.00
2022-10-19T10:08:06.306Z,1.00
2022-10-19T10:10:39.806Z,1.00
2022-10-19T10:13:17.341Z,1.00
2022-10-19T10:15:49.438Z,1.00
2022-10-19T10:18:19.514Z,1.00
2022-10-19T10:21:00.535Z,1.00
2022-10-19T10:23:34.024Z,99.90
2022-10-19T10:26:03.250Z,99.90
2022-10-19T10:28:33.636Z,1.00
2022-10-19T10:31:04.454Z,1.00
2022-10-19T10:36:27.352Z,1.00
2022-10-19T10:41:38.073Z,46.00
2022-10-19T10:44:21.486Z,55.80
2022-10-19T10:46:56.320Z,1.00
2022-10-19T10:49:27.985Z,1.00
2022-10-19T10:51:58.652Z,51.50
2022-10-19T10:54:31.130Z,99.90
2022-10-19T10:57:16.759Z,99.90
2022-10-19T10:59:58.295Z,99.90
2022-10-19T11:02:36.675Z,1.00
2022-10-19T11:05:10.969Z,99.90
2022-10-19T11:07:44.344Z,99.90
2022-10-19T11:10:26.596Z,99.90
2022-10-19T11:13:04.549Z,99.90
2022-10-19T11:15:39.915Z,99.90
2022-10-19T11:18:17.898Z,99.90
2022-10-19T11:20:56.413Z,99.90
2022-10-19T11:23:38.896Z,99.90
2022-10-19T11:26:19.807Z,99.90
2022-10-19T11:29:01.618Z,1.00
2022-10-19T11:31:44.636Z,1.00
2022-10-19T11:34:40.828Z,1.00
2022-10-19T11:37:21.276Z,1.00
2022-10-19T11:40:03.090Z,1.00
2022-10-19T11:45:23.107Z,99.90
2022-10-19T11:48:06.068Z,99.90
2022-10-19T11:50:53.902Z,99.90
2022-10-19T11:53:32.037Z,99.90
2022-10-19T11:56:07.311Z,99.90
2022-10-19T11:58:45.340Z,99.90
2022-10-19T12:01:20.361Z,99.90
2022-10-19T12:04:30.760Z,1.00
2022-10-19T12:07:10.353Z,1.00
2022-10-19T12:09:46.919Z,1.00
2022-10-19T12:12:26.856Z,1.00
2022-10-19T12:15:06.480Z,1.00
2022-10-19T12:17:39.744Z,1.00
2022-10-19T12:20:22.538Z,1.00
2022-10-19T12:22:53.960Z,1.00
2022-10-19T12:25:23.699Z,1.00
2022-10-19T12:27:55.530Z,1.00
2022-10-19T12:30:25.667Z,1.00
2022-10-19T12:33:13.441Z,1.00
2022-10-19T12:35:57.125Z,1.00
2022-10-19T12:38:34.707Z,99.90
2022-10-19T12:41:08.401Z,99.90
2022-10-19T12:43:46.607Z,99.90
2022-10-19T12:46:23.637Z,99.90
2022-10-19T12:49:24.610Z,99.90
2022-10-19T12:51:55.818Z,99.90
2022-10-19T12:54:26.310Z,95.20
2022-10-19T12:56:57.559Z,99.90
2022-10-19T12:59:29.405Z,99.90
2022-10-19T13:02:00.398Z,99.90
2022-10-19T13:04:31.815Z,1.00
2022-10-19T13:07:04.871Z,1.00
2022-10-19T13:09:35.759Z,1.00
2022-10-19T13:12:43.195Z,99.90
2022-10-19T13:15:50.125Z,1.00
2022-10-19T13:19:06.043Z,1.00
2022-10-19T13:22:13.180Z,1.00
2022-10-19T13:24:43.190Z,1.00
2022-10-19T13:27:43.909Z,1.00
2022-10-19T13:30:45.511Z,35.20
2022-10-19T13:33:49.323Z,99.90
2022-10-19T13:36:18.712Z,99.90
2022-10-19T13:38:49.596Z,99.90
2022-10-19T13:41:24.171Z,99.90
2022-10-19T13:44:05.058Z,99.90
2022-10-19T13:46:47.815Z,99.90
2022-10-19T13:49:37.842Z,99.90
2022-10-19T13:52:37.966Z,68.90
2022-10-19T13:55:28.686Z,1.00
2022-10-19T13:58:19.845Z,1.00
2022-10-19T14:01:05.647Z,1.00
2022-10-19T14:03:55.261Z,1.00
2022-10-19T14:06:34.280Z,1.00
2022-10-19T14:09:49.779Z,1.00
2022-10-19T14:12:24.235Z,1.00
2022-10-19T14:14:55.802Z,1.00
2022-10-19T14:17:28.027Z,1.00
2022-10-19T14:19:59.207Z,1.00
2022-10-19T14:22:30.996Z,1.00
2022-10-19T14:25:05.649Z,1.00
2022-10-19T14:27:36.039Z,1.00
2022-10-19T14:30:09.019Z,1.00
2022-10-19T14:32:37.677Z,99.90
2022-10-19T14:35:19.250Z,99.90
2022-10-19T14:37:47.767Z,99.90
2022-10-19T14:40:30.530Z,99.90
2022-10-19T14:43:01.109Z,99.90
2022-10-19T14:45:33.282Z,99.90
2022-10-19T14:48:05.039Z,1.00
2022-10-19T14:50:44.240Z,1.00
2022-10-19T14:53:40.708Z,1.00
2022-10-19T14:56:13.478Z,1.00
2022-10-19T14:58:50.614Z,1.00
2022-10-19T15:01:22.316Z,1.00
2022-10-19T15:03:52.124Z,1.00
2022-10-19T15:06:25.255Z,1.00
2022-10-19T15:08:57.778Z,1.00
2022-10-19T15:11:29.823Z,1.00
2022-10-19T15:14:09.967Z,1.00
2022-10-19T15:16:47.398Z,1.00
2022-10-19T15:19:30.629Z,1.00
2022-10-19T15:22:13.578Z,1.00
2022-10-19T15:24:42.786Z,21.20
2022-10-19T15:27:21.020Z,54.40
2022-10-19T15:29:55.923Z,99.90
2022-10-19T15:32:30.659Z,99.90
2022-10-19T15:34:59.699Z,99.90
2022-10-19T15:37:28.206Z,99.90
2022-10-19T15:39:56.656Z,99.90
2022-10-19T15:42:35.896Z,99.90
2022-10-19T15:45:05.250Z,99.90
2022-10-19T15:47:35.161Z,1.00
2022-10-19T15:50:03.917Z,1.00
2022-10-19T15:52:34.549Z,1.00
2022-10-19T15:55:03.098Z,13.80
2022-10-19T15:57:34.031Z,99.90
2022-10-19T16:00:11.715Z,99.90
2022-10-19T16:02:41.592Z,1.00
2022-10-19T16:05:10.961Z,1.00
2022-10-19T16:07:41.580Z,1.00
2022-10-19T16:10:17.052Z,99.90
2022-10-19T16:12:45.626Z,1.00
2022-10-19T16:15:16.290Z,1.00
2022-10-19T16:17:47.326Z,99.90
2022-10-19T16:20:16.312Z,1.00
2022-10-19T16:22:44.587Z,96.70
2022-10-19T16:25:14.098Z,99.90
2022-10-19T16:27:42.758Z,1.00
2022-10-19T16:30:12.716Z,1.00
2022-10-19T16:35:12.080Z,1.00
2022-10-19T16:37:40.252Z,99.90
2022-10-19T16:40:09.875Z,1.00
2022-10-19T16:42:38.401Z,99.90
2022-10-19T16:45:07.519Z,47.20
2022-10-19T16:47:36.661Z,1.00
2022-10-19T16:50:06.759Z,99.90
2022-10-19T16:52:36.712Z,91.20
2022-10-19T16:55:05.626Z,79.10
2022-10-19T16:57:33.842Z,1.00
2022-10-19T17:00:02.009Z,1.00
2022-10-19T17:02:30.211Z,99.90
2022-10-19T17:04:58.373Z,99.90
2022-10-19T17:07:26.605Z,1.00
2022-10-19T17:09:56.238Z,99.90
2022-10-19T17:12:24.460Z,1.00
2022-10-19T17:14:52.641Z,1.00
2022-10-19T17:17:20.940Z,99.90
2022-10-19T17:19:49.289Z,1.00
2022-10-19T17:22:17.471Z,1.00
2022-10-19T17:24:47.234Z,99.90
2022-10-19T17:27:17.074Z,99.90
2022-10-19T17:29:46.225Z,1.00
2022-10-19T17:32:14.443Z,1.00
2022-10-19T17:34:42.572Z,1.00
2022-10-19T17:37:10.698Z,1.00
2022-10-19T17:39:39.914Z,1.00
2022-10-19T17:42:08.106Z,1.00
2022-10-19T17:44:37.758Z,1.00
2022-10-19T17:47:05.908Z,1.00
2022-10-19T17:49:35.027Z,1.00
2022-10-19T17:52:03.143Z,1.00
2022-10-19T17:54:36.260Z,1.00
2022-10-19T17:57:11.814Z,1.00
2022-10-19T17:59:52.675Z,1.00
2022-10-19T18:02:21.402Z,1.00
2022-10-19T18:04:49.621Z,1.00
2022-10-19T18:07:18.621Z,1.00
2022-10-19T18:09:46.876Z,1.00
2022-10-19T18:12:15.551Z,1.00
2022-10-19T18:14:45.491Z,1.00
2022-10-19T18:17:13.701Z,99.90
2022-10-19T18:19:41.858Z,99.90
2022-10-19T18:22:10.089Z,99.90
2022-10-19T18:24:39.413Z,99.90
2022-10-19T18:27:07.601Z,1.00
2022-10-19T18:29:35.736Z,1.00
2022-10-19T18:34:34.462Z,99.90
2022-10-19T18:37:02.565Z,99.90
2022-10-19T18:39:30.735Z,99.90
2022-10-19T18:41:58.959Z,99.90
2022-10-19T18:44:29.531Z,99.90
2022-10-19T18:46:59.558Z,96.80
2022-10-19T18:49:29.105Z,99.90
2022-10-19T18:51:57.292Z,1.00
2022-10-19T18:54:26.188Z,1.00
2022-10-19T18:56:54.660Z,1.00
2022-10-19T18:59:22.887Z,1.00
2022-10-19T19:01:51.198Z,1.00
2022-10-19T19:04:19.438Z,1.00
2022-10-19T19:06:49.037Z,60.00
2022-10-19T19:09:18.798Z,1.00
2022-10-19T19:11:47.087Z,1.00
2022-10-19T19:14:17.126Z,99.90
2022-10-19T19:16:46.186Z,1.00
2022-10-19T19:19:16.727Z,1.00
2022-10-19T19:21:45.788Z,1.00
2022-10-19T19:24:18.025Z,1.00
2022-10-19T19:26:49.433Z,99.90
2022-10-19T19:29:18.810Z,1.00
2022-10-19T19:31:47.193Z,99.90
2022-10-19T19:34:15.849Z,99.90
2022-10-19T19:36:47.886Z,99.90
2022-10-19T19:39:20.011Z,1.00
2022-10-19T19:41:48.958Z,1.00
2022-10-19T19:44:17.434Z,1.00
2022-10-19T19:46:45.691Z,1.00
2022-10-19T19:49:13.906Z,32.70
2022-10-19T19:51:42.204Z,42.40
2022-10-19T19:54:11.446Z,99.90
2022-10-19T19:56:42.307Z,99.90
2022-10-19T19:59:12.170Z,99.90
2022-10-19T20:01:40.773Z,99.90
2022-10-19T20:04:09.486Z,99.90
2022-10-19T20:06:39.532Z,99.90
2022-10-19T20:09:09.201Z,99.90
2022-10-19T20:11:42.127Z,99.90
2022-10-19T20:14:13.181Z,99.90
2022-10-19T20:16:41.667Z,99.90
2022-10-19T20:19:12.156Z,1.00
2022-10-19T20:21:40.964Z,1.00
2022-10-19T20:24:09.450Z,1.00
2022-10-19T20:26:37.970Z,1.00
2022-10-19T20:29:06.708Z,1.00
2022-10-19T20:31:39.646Z,1.00
2022-10-19T20:34:10.680Z,1.00
2022-10-19T20:36:38.914Z,1.00
2022-10-19T20:39:07.227Z,1.00
2022-10-19T20:41:35.738Z,1.00
2022-10-19T20:44:05.213Z,1.00
2022-10-19T20:46:33.453Z,1.00
2022-10-19T20:49:03.226Z,1.00
2022-10-19T20:51:33.088Z,1.00
2022-10-19T20:54:02.778Z,1.00
2022-10-19T20:56:33.464Z,1.00
2022-10-19T21:01:33.720Z,1.00
2022-10-19T21:04:05.879Z,1.00
2022-10-19T21:06:35.248Z,1.00
2022-10-19T21:09:03.471Z,1.00
2022-10-19T21:11:34.068Z,1.00
2022-10-19T21:14:04.177Z,1.00
2022-10-19T21:16:33.927Z,1.00
2022-10-19T21:19:05.427Z,1.00
2022-10-19T21:21:35.662Z,1.00
2022-10-19T21:24:06.690Z,1.00
2022-10-19T21:26:37.085Z,1.00
2022-10-19T21:29:07.213Z,1.00
2022-10-19T21:31:35.563Z,1.00
2022-10-19T21:34:07.179Z,1.00
2022-10-19T21:36:35.901Z,1.00
2022-10-19T21:39:05.146Z,1.00
2022-10-19T21:41:33.733Z,1.00
2022-10-19T21:44:02.205Z,1.00
2022-10-19T21:46:30.592Z,1.00
2022-10-19T21:48:58.887Z,1.00
2022-10-19T21:51:35.958Z,1.00
2022-10-19T21:54:05.034Z,1.00
2022-10-19T21:56:34.547Z,1.00
2022-10-19T21:59:02.932Z,1.00
2022-10-19T22:01:37.229Z,1.00
2022-10-19T22:04:12.028Z,1.00
2022-10-19T22:06:42.076Z,1.00
2022-10-19T22:09:13.194Z,1.00
2022-10-19T22:11:41.628Z,1.00
2022-10-19T22:14:11.310Z,1.00
2022-10-19T22:16:41.180Z,1.00
2022-10-19T22:19:10.093Z,1.00
2022-10-19T22:24:10.501Z,1.00
2022-10-19T22:26:41.490Z,1.00
2022-10-19T22:29:10.195Z,1.00
2022-10-19T22:31:39.525Z,1.00
2022-10-19T22:34:10.639Z,1.00
2022-10-19T22:36:39.057Z,1.00
2022-10-19T22:39:09.084Z,1.00
2022-10-19T22:41:37.466Z,1.00
2022-10-19T22:44:06.019Z,1.00
2022-10-19T22:46:34.597Z,1.00
2022-10-19T22:49:03.017Z,1.00
2022-10-19T22:51:31.333Z,1.00
2022-10-19T22:53:59.734Z,1.00
2022-10-19T22:56:29.673Z,1.00
2022-10-19T22:58:59.785Z,1.00
2022-10-19T23:01:28.506Z,1.00
2022-10-19T23:03:57.142Z,1.00
2022-10-19T23:06:25.791Z,1.00
2022-10-19T23:08:54.992Z,1.00
2022-10-19T23:11:23.898Z,1.00
2022-10-19T23:13:53.595Z,1.00
2022-10-19T23:16:22.018Z,1.00
2022-10-19T23:18:50.334Z,1.00
2022-10-19T23:21:18.802Z,1.00
2022-10-19T23:23:47.213Z,1.00
2022-10-19T23:26:17.480Z,1.00
2022-10-19T23:28:48.645Z,1.00
2022-10-19T23:31:20.544Z,1.00
2022-10-19T23:33:48.886Z,1.00
2022-10-19T23:36:20.062Z,1.00
2022-10-19T23:38:50.550Z,1.00
2022-10-19T23:41:19.934Z,1.00
2022-10-19T23:43:48.730Z,1.00
2022-10-19T23:46:19.230Z,1.00
2022-10-19T23:48:47.788Z,1.00
2022-10-19T23:51:17.552Z,1.00
2022-10-19T23:53:48.842Z,1.00
2022-10-19T23:56:19.476Z,1.00
2022-10-19T23:58:48.536Z,1.00
